sensor_id;sensor_type;location;lat;lon;timestamp;P1;durP1;ratioP1;P2;durP2;ratioP2
34242;SDS011;20504;43.214;27.920;2023-05-28T00:00:25;17.80;;;11.90;;
34242;SDS011;20504;43.214;27.920;2023-05-28T00:02:51;21.45;;;12.13;;
34242;SDS011;20504;43.214;27.920;2023-05-28T00:05:17;19.57;;;13.10;;
34242;SDS011;20504;43.214;27.920;2023-05-28T00:07:42;16.50;;;12.00;;
34242;SDS011;20504;43.214;27.920;2023-05-28T00:10:08;21.00;;;13.17;;
34242;SDS011;20504;43.214;27.920;2023-05-28T00:12:34;24.33;;;12.27;;
34242;SDS011;20504;43.214;27.920;2023-05-28T00:14:59;21.27;;;13.33;;
34242;SDS011;20504;43.214;27.920;2023-05-28T00:17:25;19.27;;;12.93;;
34242;SDS011;20504;43.214;27.920;2023-05-28T00:19:50;19.83;;;12.10;;
34242;SDS011;20504;43.214;27.920;2023-05-28T00:22:16;16.07;;;12.93;;
34242;SDS011;20504;43.214;27.920;2023-05-28T00:24:41;18.73;;;12.57;;
34242;SDS011;20504;43.214;27.920;2023-05-28T00:27:07;18.97;;;13.60;;
34242;SDS011;20504;43.214;27.920;2023-05-28T00:29:32;23.73;;;13.70;;
34242;SDS011;20504;43.214;27.920;2023-05-28T00:31:58;19.23;;;11.83;;
34242;SDS011;20504;43.214;27.920;2023-05-28T00:34:23;16.60;;;13.47;;
34242;SDS011;20504;43.214;27.920;2023-05-28T00:36:50;19.02;;;12.68;;
34242;SDS011;20504;43.214;27.920;2023-05-28T00:39:16;19.43;;;11.57;;
34242;SDS011;20504;43.214;27.920;2023-05-28T00:44:08;19.35;;;12.43;;
34242;SDS011;20504;43.214;27.920;2023-05-28T00:46:37;17.85;;;11.25;;
34242;SDS011;20504;43.214;27.920;2023-05-28T00:49:05;18.42;;;11.57;;
34242;SDS011;20504;43.214;27.920;2023-05-28T00:51:31;23.17;;;12.93;;
34242;SDS011;20504;43.214;27.920;2023-05-28T00:53:57;18.40;;;12.68;;
34242;SDS011;20504;43.214;27.920;2023-05-28T00:56:23;22.38;;;11.80;;
34242;SDS011;20504;43.214;27.920;2023-05-28T00:58:51;20.98;;;12.63;;
34242;SDS011;20504;43.214;27.920;2023-05-28T01:01:17;19.83;;;11.55;;
34242;SDS011;20504;43.214;27.920;2023-05-28T01:03:43;19.07;;;11.37;;
34242;SDS011;20504;43.214;27.920;2023-05-28T01:06:09;19.53;;;11.50;;
34242;SDS011;20504;43.214;27.920;2023-05-28T01:08:38;19.15;;;12.32;;
34242;SDS011;20504;43.214;27.920;2023-05-28T01:11:25;21.48;;;11.65;;
34242;SDS011;20504;43.214;27.920;2023-05-28T01:13:49;18.38;;;12.60;;
34242;SDS011;20504;43.214;27.920;2023-05-28T01:16:16;18.30;;;11.77;;
34242;SDS011;20504;43.214;27.920;2023-05-28T01:18:41;23.47;;;10.97;;
34242;SDS011;20504;43.214;27.920;2023-05-28T01:21:09;21.95;;;12.60;;
34242;SDS011;20504;43.214;27.920;2023-05-28T01:23:40;21.27;;;12.88;;
34242;SDS011;20504;43.214;27.920;2023-05-28T01:26:11;15.10;;;11.65;;
34242;SDS011;20504;43.214;27.920;2023-05-28T01:28:38;20.75;;;12.45;;
34242;SDS011;20504;43.214;27.920;2023-05-28T01:31:09;17.55;;;10.88;;
34242;SDS011;20504;43.214;27.920;2023-05-28T01:33:36;18.60;;;11.38;;
34242;SDS011;20504;43.214;27.920;2023-05-28T01:36:05;20.33;;;11.45;;
34242;SDS011;20504;43.214;27.920;2023-05-28T01:38:34;20.48;;;11.82;;
34242;SDS011;20504;43.214;27.920;2023-05-28T01:41:03;17.10;;;10.95;;
34242;SDS011;20504;43.214;27.920;2023-05-28T01:43:30;20.42;;;11.27;;
34242;SDS011;20504;43.214;27.920;2023-05-28T01:45:55;20.83;;;11.67;;
34242;SDS011;20504;43.214;27.920;2023-05-28T01:48:21;17.57;;;10.97;;
34242;SDS011;20504;43.214;27.920;2023-05-28T01:50:48;27.23;;;11.50;;
34242;SDS011;20504;43.214;27.920;2023-05-28T01:53:13;18.73;;;12.20;;
34242;SDS011;20504;43.214;27.920;2023-05-28T01:55:39;15.27;;;10.97;;
34242;SDS011;20504;43.214;27.920;2023-05-28T01:58:05;17.17;;;13.43;;
34242;SDS011;20504;43.214;27.920;2023-05-28T02:00:31;20.02;;;12.35;;
34242;SDS011;20504;43.214;27.920;2023-05-28T02:03:00;19.17;;;12.18;;
34242;SDS011;20504;43.214;27.920;2023-05-28T02:05:25;18.17;;;11.93;;
34242;SDS011;20504;43.214;27.920;2023-05-28T02:07:51;20.00;;;12.67;;
34242;SDS011;20504;43.214;27.920;2023-05-28T02:10:18;23.58;;;13.07;;
34242;SDS011;20504;43.214;27.920;2023-05-28T02:12:44;21.57;;;12.33;;
34242;SDS011;20504;43.214;27.920;2023-05-28T02:15:10;18.73;;;12.80;;
34242;SDS011;20504;43.214;27.920;2023-05-28T02:17:36;22.45;;;13.32;;
34242;SDS011;20504;43.214;27.920;2023-05-28T02:20:01;19.90;;;12.67;;
34242;SDS011;20504;43.214;27.920;2023-05-28T02:22:27;18.15;;;12.80;;
34242;SDS011;20504;43.214;27.920;2023-05-28T02:24:53;17.50;;;12.37;;
34242;SDS011;20504;43.214;27.920;2023-05-28T02:27:18;21.10;;;13.13;;
34242;SDS011;20504;43.214;27.920;2023-05-28T02:29:45;21.60;;;13.93;;
34242;SDS011;20504;43.214;27.920;2023-05-28T02:32:11;24.52;;;13.82;;
34242;SDS011;20504;43.214;27.920;2023-05-28T02:34:37;20.73;;;14.70;;
34242;SDS011;20504;43.214;27.920;2023-05-28T02:37:03;20.38;;;14.80;;
34242;SDS011;20504;43.214;27.920;2023-05-28T02:39:29;22.97;;;14.93;;
34242;SDS011;20504;43.214;27.920;2023-05-28T02:41:54;28.57;;;15.00;;
34242;SDS011;20504;43.214;27.920;2023-05-28T02:44:21;18.87;;;14.23;;
34242;SDS011;20504;43.214;27.920;2023-05-28T02:46:47;24.10;;;14.30;;
34242;SDS011;20504;43.214;27.920;2023-05-28T02:49:12;25.83;;;15.17;;
34242;SDS011;20504;43.214;27.920;2023-05-28T02:51:38;18.60;;;13.70;;
34242;SDS011;20504;43.214;27.920;2023-05-28T02:54:03;24.83;;;15.80;;
34242;SDS011;20504;43.214;27.920;2023-05-28T02:56:29;25.07;;;14.80;;
34242;SDS011;20504;43.214;27.920;2023-05-28T02:58:54;21.40;;;15.13;;
34242;SDS011;20504;43.214;27.920;2023-05-28T03:01:20;20.10;;;14.07;;
34242;SDS011;20504;43.214;27.920;2023-05-28T03:03:45;20.87;;;14.90;;
34242;SDS011;20504;43.214;27.920;2023-05-28T03:06:11;20.37;;;14.10;;
34242;SDS011;20504;43.214;27.920;2023-05-28T03:11:03;24.42;;;14.32;;
34242;SDS011;20504;43.214;27.920;2023-05-28T03:13:28;24.93;;;14.57;;
34242;SDS011;20504;43.214;27.920;2023-05-28T03:15:54;25.80;;;15.83;;
34242;SDS011;20504;43.214;27.920;2023-05-28T03:18:20;24.33;;;14.37;;
34242;SDS011;20504;43.214;27.920;2023-05-28T03:20:45;22.03;;;13.80;;
34242;SDS011;20504;43.214;27.920;2023-05-28T03:23:10;21.80;;;12.97;;
34242;SDS011;20504;43.214;27.920;2023-05-28T03:25:36;25.40;;;14.53;;
34242;SDS011;20504;43.214;27.920;2023-05-28T03:28:01;27.23;;;13.90;;
34242;SDS011;20504;43.214;27.920;2023-05-28T03:30:27;25.67;;;14.07;;
34242;SDS011;20504;43.214;27.920;2023-05-28T03:32:52;27.00;;;13.67;;
34242;SDS011;20504;43.214;27.920;2023-05-28T03:35:18;28.13;;;14.40;;
34242;SDS011;20504;43.214;27.920;2023-05-28T03:37:43;21.23;;;13.03;;
34242;SDS011;20504;43.214;27.920;2023-05-28T03:40:09;19.67;;;13.13;;
34242;SDS011;20504;43.214;27.920;2023-05-28T03:42:35;24.73;;;13.83;;
34242;SDS011;20504;43.214;27.920;2023-05-28T03:45:01;21.58;;;13.43;;
34242;SDS011;20504;43.214;27.920;2023-05-28T03:47:27;19.33;;;13.03;;
34242;SDS011;20504;43.214;27.920;2023-05-28T03:49:55;26.77;;;13.93;;
34242;SDS011;20504;43.214;27.920;2023-05-28T03:52:21;25.10;;;13.93;;
34242;SDS011;20504;43.214;27.920;2023-05-28T03:54:47;17.97;;;12.00;;
34242;SDS011;20504;43.214;27.920;2023-05-28T03:57:12;19.20;;;12.77;;
34242;SDS011;20504;43.214;27.920;2023-05-28T03:59:37;20.10;;;13.33;;
34242;SDS011;20504;43.214;27.920;2023-05-28T04:02:03;26.93;;;12.80;;
34242;SDS011;20504;43.214;27.920;2023-05-28T04:04:28;22.67;;;13.10;;
34242;SDS011;20504;43.214;27.920;2023-05-28T04:06:54;20.40;;;11.50;;
34242;SDS011;20504;43.214;27.920;2023-05-28T04:09:19;19.17;;;11.53;;
34242;SDS011;20504;43.214;27.920;2023-05-28T04:11:45;22.47;;;11.00;;
34242;SDS011;20504;43.214;27.920;2023-05-28T04:14:10;19.73;;;11.13;;
34242;SDS011;20504;43.214;27.920;2023-05-28T04:16:36;18.70;;;9.97;;
34242;SDS011;20504;43.214;27.920;2023-05-28T04:19:02;16.23;;;9.40;;
34242;SDS011;20504;43.214;27.920;2023-05-28T04:21:27;24.60;;;9.83;;
34242;SDS011;20504;43.214;27.920;2023-05-28T04:23:56;16.38;;;8.85;;
34242;SDS011;20504;43.214;27.920;2023-05-28T04:26:21;17.13;;;10.10;;
34242;SDS011;20504;43.214;27.920;2023-05-28T04:28:47;18.87;;;10.87;;
34242;SDS011;20504;43.214;27.920;2023-05-28T04:31:13;19.88;;;9.88;;
34242;SDS011;20504;43.214;27.920;2023-05-28T04:33:39;17.90;;;9.95;;
34242;SDS011;20504;43.214;27.920;2023-05-28T04:36:05;13.13;;;9.43;;
34242;SDS011;20504;43.214;27.920;2023-05-28T04:38:33;18.83;;;10.73;;
34242;SDS011;20504;43.214;27.920;2023-05-28T04:40:58;22.47;;;9.47;;
34242;SDS011;20504;43.214;27.920;2023-05-28T04:43:29;21.42;;;11.05;;
34242;SDS011;20504;43.214;27.920;2023-05-28T04:45:56;14.43;;;9.37;;
34242;SDS011;20504;43.214;27.920;2023-05-28T04:48:25;18.25;;;10.07;;
34242;SDS011;20504;43.214;27.920;2023-05-28T04:50:51;18.60;;;10.23;;
34242;SDS011;20504;43.214;27.920;2023-05-28T04:53:17;18.27;;;10.27;;
34242;SDS011;20504;43.214;27.920;2023-05-28T04:55:43;20.23;;;10.27;;
34242;SDS011;20504;43.214;27.920;2023-05-28T04:58:09;18.27;;;10.48;;
34242;SDS011;20504;43.214;27.920;2023-05-28T05:00:35;15.93;;;9.35;;
34242;SDS011;20504;43.214;27.920;2023-05-28T05:03:01;12.47;;;8.27;;
34242;SDS011;20504;43.214;27.920;2023-05-28T05:05:27;14.97;;;9.07;;
34242;SDS011;20504;43.214;27.920;2023-05-28T05:07:52;13.07;;;8.53;;
34242;SDS011;20504;43.214;27.920;2023-05-28T05:10:18;22.33;;;8.93;;
34242;SDS011;20504;43.214;27.920;2023-05-28T05:12:43;14.93;;;8.63;;
34242;SDS011;20504;43.214;27.920;2023-05-28T05:15:09;17.77;;;9.47;;
34242;SDS011;20504;43.214;27.920;2023-05-28T05:17:34;15.47;;;9.47;;
34242;SDS011;20504;43.214;27.920;2023-05-28T05:20:00;19.13;;;8.47;;
34242;SDS011;20504;43.214;27.920;2023-05-28T05:22:29;14.57;;;8.10;;
34242;SDS011;20504;43.214;27.920;2023-05-28T05:24:55;19.90;;;9.05;;
34242;SDS011;20504;43.214;27.920;2023-05-28T05:27:21;14.10;;;8.33;;
34242;SDS011;20504;43.214;27.920;2023-05-28T05:29:46;18.07;;;8.67;;
34242;SDS011;20504;43.214;27.920;2023-05-28T05:32:12;19.33;;;8.33;;
34242;SDS011;20504;43.214;27.920;2023-05-28T05:34:37;14.63;;;7.57;;
34242;SDS011;20504;43.214;27.920;2023-05-28T05:37:03;18.10;;;8.27;;
34242;SDS011;20504;43.214;27.920;2023-05-28T05:39:28;16.10;;;8.88;;
34242;SDS011;20504;43.214;27.920;2023-05-28T05:41:54;15.73;;;8.53;;
34242;SDS011;20504;43.214;27.920;2023-05-28T05:44:20;13.73;;;8.30;;
34242;SDS011;20504;43.214;27.920;2023-05-28T05:46:46;20.80;;;9.37;;
34242;SDS011;20504;43.214;27.920;2023-05-28T05:49:11;17.10;;;8.37;;
34242;SDS011;20504;43.214;27.920;2023-05-28T05:51:37;15.53;;;8.60;;
34242;SDS011;20504;43.214;27.920;2023-05-28T05:54:03;17.87;;;8.73;;
34242;SDS011;20504;43.214;27.920;2023-05-28T05:56:28;15.38;;;9.05;;
34242;SDS011;20504;43.214;27.920;2023-05-28T05:58:54;12.00;;;8.87;;
34242;SDS011;20504;43.214;27.920;2023-05-28T06:01:20;20.50;;;9.50;;
34242;SDS011;20504;43.214;27.920;2023-05-28T06:03:46;22.58;;;9.55;;
34242;SDS011;20504;43.214;27.920;2023-05-28T06:06:12;18.25;;;9.70;;
34242;SDS011;20504;43.214;27.920;2023-05-28T06:08:38;23.20;;;9.90;;
34242;SDS011;20504;43.214;27.920;2023-05-28T06:11:04;17.55;;;9.90;;
34242;SDS011;20504;43.214;27.920;2023-05-28T06:13:30;18.47;;;10.20;;
34242;SDS011;20504;43.214;27.920;2023-05-28T06:15:56;19.75;;;10.10;;
34242;SDS011;20504;43.214;27.920;2023-05-28T06:18:22;32.55;;;12.48;;
34242;SDS011;20504;43.214;27.920;2023-05-28T06:20:49;20.15;;;10.93;;
34242;SDS011;20504;43.214;27.920;2023-05-28T06:23:15;20.88;;;10.43;;
34242;SDS011;20504;43.214;27.920;2023-05-28T06:25:41;20.77;;;10.57;;
34242;SDS011;20504;43.214;27.920;2023-05-28T06:28:12;23.38;;;10.82;;
34242;SDS011;20504;43.214;27.920;2023-05-28T06:30:38;18.35;;;10.70;;
34242;SDS011;20504;43.214;27.920;2023-05-28T06:33:04;23.05;;;12.77;;
34242;SDS011;20504;43.214;27.920;2023-05-28T06:35:30;17.33;;;11.17;;
34242;SDS011;20504;43.214;27.920;2023-05-28T06:37:56;17.00;;;12.07;;
34242;SDS011;20504;43.214;27.920;2023-05-28T06:40:21;17.87;;;11.30;;
34242;SDS011;20504;43.214;27.920;2023-05-28T06:42:47;27.17;;;12.03;;
34242;SDS011;20504;43.214;27.920;2023-05-28T06:45:12;17.67;;;11.80;;
34242;SDS011;20504;43.214;27.920;2023-05-28T06:47:39;19.40;;;10.80;;
34242;SDS011;20504;43.214;27.920;2023-05-28T06:50:04;18.93;;;11.70;;
34242;SDS011;20504;43.214;27.920;2023-05-28T06:52:30;14.80;;;10.43;;
34242;SDS011;20504;43.214;27.920;2023-05-28T06:54:56;23.50;;;12.67;;
34242;SDS011;20504;43.214;27.920;2023-05-28T06:57:21;17.57;;;11.00;;
34242;SDS011;20504;43.214;27.920;2023-05-28T06:59:48;16.65;;;11.45;;
34242;SDS011;20504;43.214;27.920;2023-05-28T07:02:13;23.70;;;12.20;;
34242;SDS011;20504;43.214;27.920;2023-05-28T07:04:40;19.58;;;12.13;;
34242;SDS011;20504;43.214;27.920;2023-05-28T07:07:06;24.48;;;13.73;;
34242;SDS011;20504;43.214;27.920;2023-05-28T07:09:31;22.13;;;13.50;;
34242;SDS011;20504;43.214;27.920;2023-05-28T07:11:57;24.23;;;12.73;;
34242;SDS011;20504;43.214;27.920;2023-05-28T07:14:22;21.43;;;12.03;;
34242;SDS011;20504;43.214;27.920;2023-05-28T07:16:48;19.20;;;11.75;;
34242;SDS011;20504;43.214;27.920;2023-05-28T07:19:14;25.47;;;12.00;;
34242;SDS011;20504;43.214;27.920;2023-05-28T07:21:40;15.63;;;11.30;;
34242;SDS011;20504;43.214;27.920;2023-05-28T07:24:05;19.70;;;11.30;;
34242;SDS011;20504;43.214;27.920;2023-05-28T07:26:32;17.65;;;11.50;;
34242;SDS011;20504;43.214;27.920;2023-05-28T07:28:57;19.27;;;10.98;;
34242;SDS011;20504;43.214;27.920;2023-05-28T07:31:23;17.37;;;10.87;;
34242;SDS011;20504;43.214;27.920;2023-05-28T07:33:49;17.33;;;10.63;;
34242;SDS011;20504;43.214;27.920;2023-05-28T07:36:15;19.73;;;10.65;;
34242;SDS011;20504;43.214;27.920;2023-05-28T07:38:41;18.00;;;11.07;;
34242;SDS011;20504;43.214;27.920;2023-05-28T07:43:33;24.35;;;10.32;;
34242;SDS011;20504;43.214;27.920;2023-05-28T07:45:58;17.30;;;9.63;;
34242;SDS011;20504;43.214;27.920;2023-05-28T07:48:23;15.33;;;9.57;;
34242;SDS011;20504;43.214;27.920;2023-05-28T07:50:49;18.10;;;10.33;;
34242;SDS011;20504;43.214;27.920;2023-05-28T07:53:14;17.50;;;9.43;;
34242;SDS011;20504;43.214;27.920;2023-05-28T07:55:41;19.25;;;9.52;;
34242;SDS011;20504;43.214;27.920;2023-05-28T07:58:07;17.13;;;10.17;;
34242;SDS011;20504;43.214;27.920;2023-05-28T08:00:32;17.30;;;9.90;;
34242;SDS011;20504;43.214;27.920;2023-05-28T08:02:58;21.97;;;9.33;;
34242;SDS011;20504;43.214;27.920;2023-05-28T08:05:23;15.83;;;9.40;;
34242;SDS011;20504;43.214;27.920;2023-05-28T08:07:49;16.57;;;10.10;;
34242;SDS011;20504;43.214;27.920;2023-05-28T08:10:14;22.13;;;9.03;;
34242;SDS011;20504;43.214;27.920;2023-05-28T08:15:06;15.38;;;9.45;;
34242;SDS011;20504;43.214;27.920;2023-05-28T08:17:32;23.77;;;9.87;;
34242;SDS011;20504;43.214;27.920;2023-05-28T08:19:59;19.07;;;9.97;;
34242;SDS011;20504;43.214;27.920;2023-05-28T08:22:25;19.83;;;10.10;;
34242;SDS011;20504;43.214;27.920;2023-05-28T08:24:50;14.40;;;8.90;;
34242;SDS011;20504;43.214;27.920;2023-05-28T08:27:16;20.37;;;10.60;;
34242;SDS011;20504;43.214;27.920;2023-05-28T08:29:41;17.80;;;10.73;;
34242;SDS011;20504;43.214;27.920;2023-05-28T08:32:07;21.77;;;12.07;;
34242;SDS011;20504;43.214;27.920;2023-05-28T08:34:32;17.43;;;10.23;;
34242;SDS011;20504;43.214;27.920;2023-05-28T08:37:00;16.77;;;10.15;;
34242;SDS011;20504;43.214;27.920;2023-05-28T08:39:27;21.45;;;11.57;;
34242;SDS011;20504;43.214;27.920;2023-05-28T08:41:52;19.10;;;11.43;;
34242;SDS011;20504;43.214;27.920;2023-05-28T08:44:18;22.23;;;11.93;;
34242;SDS011;20504;43.214;27.920;2023-05-28T08:46:44;20.63;;;10.55;;
34242;SDS011;20504;43.214;27.920;2023-05-28T08:49:10;24.67;;;11.00;;
34242;SDS011;20504;43.214;27.920;2023-05-28T08:51:37;21.15;;;10.57;;
34242;SDS011;20504;43.214;27.920;2023-05-28T08:54:05;26.70;;;12.15;;
34242;SDS011;20504;43.214;27.920;2023-05-28T08:56:33;18.98;;;11.35;;
34242;SDS011;20504;43.214;27.920;2023-05-28T08:58:59;25.85;;;13.27;;
34242;SDS011;20504;43.214;27.920;2023-05-28T09:01:26;19.17;;;11.32;;
34242;SDS011;20504;43.214;27.920;2023-05-28T09:03:52;23.45;;;10.63;;
34242;SDS011;20504;43.214;27.920;2023-05-28T09:06:18;23.97;;;10.40;;
34242;SDS011;20504;43.214;27.920;2023-05-28T09:08:44;18.67;;;10.70;;
34242;SDS011;20504;43.214;27.920;2023-05-28T09:11:13;24.40;;;10.52;;
34242;SDS011;20504;43.214;27.920;2023-05-28T09:13:40;17.75;;;9.73;;
34242;SDS011;20504;43.214;27.920;2023-05-28T09:16:09;18.38;;;9.35;;
34242;SDS011;20504;43.214;27.920;2023-05-28T09:18:35;16.15;;;10.05;;
34242;SDS011;20504;43.214;27.920;2023-05-28T09:21:06;22.00;;;9.93;;
34242;SDS011;20504;43.214;27.920;2023-05-28T09:23:35;21.95;;;9.82;;
34242;SDS011;20504;43.214;27.920;2023-05-28T09:26:01;20.93;;;10.03;;
34242;SDS011;20504;43.214;27.920;2023-05-28T09:28:27;19.23;;;9.10;;
34242;SDS011;20504;43.214;27.920;2023-05-28T09:30:56;23.97;;;11.60;;
34242;SDS011;20504;43.214;27.920;2023-05-28T09:33:27;16.08;;;9.38;;
34242;SDS011;20504;43.214;27.920;2023-05-28T09:36:02;14.93;;;9.17;;
34242;SDS011;20504;43.214;27.920;2023-05-28T09:38:37;15.45;;;8.55;;
34242;SDS011;20504;43.214;27.920;2023-05-28T09:41:04;13.15;;;9.15;;
34242;SDS011;20504;43.214;27.920;2023-05-28T09:43:30;15.30;;;8.30;;
34242;SDS011;20504;43.214;27.920;2023-05-28T09:46:08;15.57;;;8.17;;
34242;SDS011;20504;43.214;27.920;2023-05-28T09:48:34;20.20;;;9.40;;
34242;SDS011;20504;43.214;27.920;2023-05-28T09:51:02;16.67;;;8.65;;
34242;SDS011;20504;43.214;27.920;2023-05-28T09:53:29;13.60;;;7.85;;
34242;SDS011;20504;43.214;27.920;2023-05-28T09:55:58;14.25;;;8.70;;
34242;SDS011;20504;43.214;27.920;2023-05-28T09:58:26;17.42;;;8.80;;
34242;SDS011;20504;43.214;27.920;2023-05-28T10:00:57;17.55;;;8.68;;
34242;SDS011;20504;43.214;27.920;2023-05-28T10:03:31;25.45;;;10.45;;
34242;SDS011;20504;43.214;27.920;2023-05-28T10:06:03;18.95;;;10.70;;
34242;SDS011;20504;43.214;27.920;2023-05-28T10:08:36;18.63;;;9.85;;
34242;SDS011;20504;43.214;27.920;2023-05-28T10:11:02;19.70;;;9.52;;
34242;SDS011;20504;43.214;27.920;2023-05-28T10:13:38;15.77;;;9.27;;
34242;SDS011;20504;43.214;27.920;2023-05-28T10:16:04;15.98;;;9.75;;
34242;SDS011;20504;43.214;27.920;2023-05-28T10:18:30;17.27;;;8.63;;
34242;SDS011;20504;43.214;27.920;2023-05-28T10:20:56;14.80;;;8.93;;
34242;SDS011;20504;43.214;27.920;2023-05-28T10:23:23;14.68;;;8.43;;
34242;SDS011;20504;43.214;27.920;2023-05-28T10:28:15;19.67;;;9.38;;
34242;SDS011;20504;43.214;27.920;2023-05-28T10:30:41;17.98;;;8.77;;
34242;SDS011;20504;43.214;27.920;2023-05-28T10:33:08;15.05;;;8.60;;
34242;SDS011;20504;43.214;27.920;2023-05-28T10:35:49;15.07;;;8.40;;
34242;SDS011;20504;43.214;27.920;2023-05-28T10:38:20;17.80;;;8.82;;
34242;SDS011;20504;43.214;27.920;2023-05-28T10:40:46;13.90;;;9.05;;
34242;SDS011;20504;43.214;27.920;2023-05-28T10:46:03;16.23;;;8.82;;
34242;SDS011;20504;43.214;27.920;2023-05-28T10:51:54;19.67;;;10.20;;
34242;SDS011;20504;43.214;27.920;2023-05-28T10:59:42;14.45;;;10.05;;
34242;SDS011;20504;43.214;27.920;2023-05-28T11:02:07;22.75;;;11.07;;
34242;SDS011;20504;43.214;27.920;2023-05-28T11:04:36;19.33;;;10.23;;
34242;SDS011;20504;43.214;27.920;2023-05-28T11:07:02;19.15;;;10.52;;
34242;SDS011;20504;43.214;27.920;2023-05-28T11:09:27;24.10;;;9.30;;
34242;SDS011;20504;43.214;27.920;2023-05-28T11:11:57;15.33;;;10.00;;
34242;SDS011;20504;43.214;27.920;2023-05-28T11:14:37;24.45;;;11.77;;
34242;SDS011;20504;43.214;27.920;2023-05-28T11:17:10;15.82;;;10.02;;
34242;SDS011;20504;43.214;27.920;2023-05-28T11:22:09;19.52;;;9.88;;
34242;SDS011;20504;43.214;27.920;2023-05-28T11:27:20;15.10;;;9.02;;
34242;SDS011;20504;43.214;27.920;2023-05-28T11:29:46;14.60;;;8.38;;
34242;SDS011;20504;43.214;27.920;2023-05-28T11:32:13;14.98;;;8.23;;
34242;SDS011;20504;43.214;27.920;2023-05-28T11:34:38;20.17;;;9.13;;
34242;SDS011;20504;43.214;27.920;2023-05-28T11:37:04;24.23;;;10.03;;
34242;SDS011;20504;43.214;27.920;2023-05-28T11:39:33;20.30;;;9.10;;
34242;SDS011;20504;43.214;27.920;2023-05-28T11:41:59;15.95;;;8.93;;
34242;SDS011;20504;43.214;27.920;2023-05-28T11:44:25;15.23;;;8.77;;
34242;SDS011;20504;43.214;27.920;2023-05-28T11:46:53;16.27;;;7.97;;
34242;SDS011;20504;43.214;27.920;2023-05-28T11:49:20;16.02;;;8.02;;
34242;SDS011;20504;43.214;27.920;2023-05-28T11:51:46;10.95;;;8.23;;
34242;SDS011;20504;43.214;27.920;2023-05-28T11:54:14;16.90;;;8.20;;
34242;SDS011;20504;43.214;27.920;2023-05-28T11:56:40;16.97;;;8.60;;
34242;SDS011;20504;43.214;27.920;2023-05-28T11:59:05;16.33;;;8.77;;
34242;SDS011;20504;43.214;27.920;2023-05-28T12:01:31;14.87;;;8.93;;
34242;SDS011;20504;43.214;27.920;2023-05-28T12:04:03;19.77;;;9.90;;
34242;SDS011;20504;43.214;27.920;2023-05-28T12:06:32;19.73;;;9.95;;
34242;SDS011;20504;43.214;27.920;2023-05-28T12:09:03;15.32;;;8.32;;
34242;SDS011;20504;43.214;27.920;2023-05-28T12:11:30;15.55;;;9.20;;
34242;SDS011;20504;43.214;27.920;2023-05-28T12:13:55;17.40;;;9.00;;
34242;SDS011;20504;43.214;27.920;2023-05-28T12:16:25;15.55;;;9.05;;
34242;SDS011;20504;43.214;27.920;2023-05-28T12:18:51;17.33;;;8.57;;
34242;SDS011;20504;43.214;27.920;2023-05-28T12:21:17;22.83;;;11.13;;
34242;SDS011;20504;43.214;27.920;2023-05-28T12:23:46;19.00;;;10.38;;
34242;SDS011;20504;43.214;27.920;2023-05-28T12:26:11;17.75;;;10.68;;
34242;SDS011;20504;43.214;27.920;2023-05-28T12:28:39;17.25;;;9.45;;
34242;SDS011;20504;43.214;27.920;2023-05-28T12:31:06;14.20;;;9.00;;
34242;SDS011;20504;43.214;27.920;2023-05-28T12:33:32;12.38;;;8.40;;
34242;SDS011;20504;43.214;27.920;2023-05-28T12:35:57;19.08;;;10.00;;
34242;SDS011;20504;43.214;27.920;2023-05-28T12:38:25;15.93;;;7.78;;
34242;SDS011;20504;43.214;27.920;2023-05-28T12:40:51;16.90;;;8.30;;
34242;SDS011;20504;43.214;27.920;2023-05-28T12:43:17;15.27;;;8.10;;
34242;SDS011;20504;43.214;27.920;2023-05-28T12:45:43;15.73;;;8.05;;
34242;SDS011;20504;43.214;27.920;2023-05-28T12:48:08;14.03;;;8.37;;
34242;SDS011;20504;43.214;27.920;2023-05-28T12:50:34;15.53;;;7.80;;
34242;SDS011;20504;43.214;27.920;2023-05-28T12:53:00;12.65;;;7.93;;
34242;SDS011;20504;43.214;27.920;2023-05-28T12:55:28;14.73;;;8.48;;
34242;SDS011;20504;43.214;27.920;2023-05-28T12:57:53;15.70;;;7.70;;
34242;SDS011;20504;43.214;27.920;2023-05-28T13:00:18;12.70;;;7.72;;
34242;SDS011;20504;43.214;27.920;2023-05-28T13:02:44;16.13;;;7.57;;
34242;SDS011;20504;43.214;27.920;2023-05-28T13:05:10;14.00;;;6.97;;
34242;SDS011;20504;43.214;27.920;2023-05-28T13:07:35;15.15;;;7.43;;
34242;SDS011;20504;43.214;27.920;2023-05-28T13:10:01;11.07;;;6.22;;
34242;SDS011;20504;43.214;27.920;2023-05-28T13:12:26;10.27;;;6.78;;
34242;SDS011;20504;43.214;27.920;2023-05-28T13:14:52;17.33;;;7.17;;
34242;SDS011;20504;43.214;27.920;2023-05-28T13:17:17;13.57;;;7.33;;
34242;SDS011;20504;43.214;27.920;2023-05-28T13:19:45;13.82;;;7.00;;
34242;SDS011;20504;43.214;27.920;2023-05-28T13:22:10;12.00;;;6.72;;
34242;SDS011;20504;43.214;27.920;2023-05-28T13:24:37;9.88;;;6.95;;
34242;SDS011;20504;43.214;27.920;2023-05-28T13:27:03;12.27;;;6.25;;
34242;SDS011;20504;43.214;27.920;2023-05-28T13:29:29;18.15;;;8.05;;
34242;SDS011;20504;43.214;27.920;2023-05-28T13:31:54;22.05;;;10.88;;
34242;SDS011;20504;43.214;27.920;2023-05-28T13:34:20;14.40;;;8.55;;
34242;SDS011;20504;43.214;27.920;2023-05-28T13:36:45;16.20;;;8.43;;
34242;SDS011;20504;43.214;27.920;2023-05-28T13:39:10;10.05;;;6.90;;
34242;SDS011;20504;43.214;27.920;2023-05-28T13:41:36;12.90;;;6.90;;
34242;SDS011;20504;43.214;27.920;2023-05-28T13:44:01;16.63;;;7.35;;
34242;SDS011;20504;43.214;27.920;2023-05-28T13:46:27;13.18;;;7.03;;
34242;SDS011;20504;43.214;27.920;2023-05-28T13:48:53;8.27;;;6.65;;
34242;SDS011;20504;43.214;27.920;2023-05-28T13:51:19;10.88;;;7.20;;
34242;SDS011;20504;43.214;27.920;2023-05-28T13:53:46;11.98;;;6.78;;
34242;SDS011;20504;43.214;27.920;2023-05-28T13:56:12;12.38;;;7.90;;
34242;SDS011;20504;43.214;27.920;2023-05-28T13:58:39;12.93;;;7.95;;
34242;SDS011;20504;43.214;27.920;2023-05-28T14:01:04;9.65;;;7.28;;
34242;SDS011;20504;43.214;27.920;2023-05-28T14:03:30;16.02;;;7.22;;
34242;SDS011;20504;43.214;27.920;2023-05-28T17:11:45;16.55;;;12.73;;
34242;SDS011;20504;43.214;27.920;2023-05-28T17:14:12;18.77;;;11.80;;
34242;SDS011;20504;43.214;27.920;2023-05-28T17:16:37;17.80;;;12.77;;
34242;SDS011;20504;43.214;27.920;2023-05-28T17:19:03;13.20;;;11.77;;
34242;SDS011;20504;43.214;27.920;2023-05-28T17:21:28;16.23;;;11.10;;
34242;SDS011;20504;43.214;27.920;2023-05-28T17:23:54;15.15;;;11.40;;
34242;SDS011;20504;43.214;27.920;2023-05-28T17:26:19;15.50;;;11.47;;
34242;SDS011;20504;43.214;27.920;2023-05-28T17:28:46;16.35;;;11.80;;
34242;SDS011;20504;43.214;27.920;2023-05-28T17:31:11;13.30;;;11.10;;
34242;SDS011;20504;43.214;27.920;2023-05-28T17:33:36;13.50;;;10.17;;
34242;SDS011;20504;43.214;27.920;2023-05-28T17:36:02;15.60;;;11.23;;
34242;SDS011;20504;43.214;27.920;2023-05-28T17:38:27;19.10;;;12.60;;
34242;SDS011;20504;43.214;27.920;2023-05-28T17:40:53;14.27;;;11.43;;
34242;SDS011;20504;43.214;27.920;2023-05-28T17:43:21;18.75;;;12.38;;